LFST 271700Z AUTO 18008KT CAVOK 10/06 Q1011 NOSIG

TAF LFST 271100Z 2712/2812 19010KT 9999 SCT030 BKN050 TEMPO 2800/2808 4000 -RA

 

Temperature in degrees Celsius: 10
Dew Point Temperature in degrees Celsius: 6

 

http://openflyers.com/case/icingChart.php?chart=2&temperature=10&dewPoint=6